Time;durP1;ratioP1;P1;durP2;ratioP2;P2;SDS_P1;SDS_P2;PMS_P1;PMS_P2;Temp;Humidity;BMP_temperature;BMP_pressure;BME280_temperature;BME280_humidity;BME280_pressure;Samples;Min_cycle;Max_cycle;Signal;HPM_P1;HPM_P2
2022/03/29 00:00:13;;;;;;;13.43;6.68;;;;;;;17.33;32.48;98409.28;4426865;32;20385;-81
2022/03/29 00:02:41;;;;;;;13.20;5.62;;;;;;;17.21;32.69;98405.03;4426672;32;20084;-81
2022/03/29 00:05:07;;;;;;;12.68;5.72;;;;;;;17.30;32.42;98406.88;4439345;32;20353;-82
2022/03/29 00:07:34;;;;;;;14.87;6.12;;;;;;;17.27;32.48;98401.84;4440670;32;20163;-82
2022/03/29 00:10:01;;;;;;;13.68;6.20;;;;;;;17.16;32.64;98389.47;4440773;32;20386;-81
2022/03/29 00:12:27;;;;;;;13.93;6.12;;;;;;;17.05;32.94;98386.91;4440540;32;20077;-81
2022/03/29 00:14:53;;;;;;;14.30;6.30;;;;;;;17.06;32.83;98391.28;4440466;32;20138;-81
2022/03/29 00:17:18;;;;;;;14.65;5.75;;;;;;;16.93;33.16;98386.16;4436452;32;20444;-81
2022/03/29 00:19:44;;;;;;;13.98;5.93;;;;;;;17.09;33.05;98388.31;4433082;32;20458;-82
2022/03/29 00:22:09;;;;;;;14.80;6.18;;;;;;;17.08;33.01;98378.66;4425941;32;20089;-81
2022/03/29 00:24:34;;;;;;;14.70;6.25;;;;;;;17.08;33.05;98376.00;4431980;32;20112;-82
2022/03/29 00:27:00;;;;;;;12.55;6.30;;;;;;;17.04;33.21;98369.28;4428680;32;20342;-82
2022/03/29 00:29:25;;;;;;;13.95;6.30;;;;;;;16.90;33.46;98366.00;4432636;32;20085;-80
2022/03/29 00:31:51;;;;;;;13.80;5.95;;;;;;;17.01;33.31;98356.22;4412752;32;20129;-81
2022/03/29 00:34:16;;;;;;;15.00;5.97;;;;;;;16.96;33.47;98351.31;4423996;32;20108;-82
2022/03/29 00:36:41;;;;;;;13.93;6.90;;;;;;;17.01;33.53;98351.75;4424610;32;20094;-82
2022/03/29 00:39:07;;;;;;;13.73;5.87;;;;;;;17.02;33.52;98353.44;4425243;32;20181;-81
2022/03/29 00:41:32;;;;;;;16.12;6.25;;;;;;;16.96;33.62;98346.00;4424029;32;20081;-82
2022/03/29 00:43:58;;;;;;;13.32;5.90;;;;;;;16.79;33.96;98351.94;4424602;32;20128;-82
2022/03/29 00:46:24;;;;;;;12.73;5.82;;;;;;;17.03;33.67;98351.59;4424955;32;20121;-82
2022/03/29 00:48:50;;;;;;;13.52;5.65;;;;;;;16.94;33.78;98344.44;4411212;32;20461;-82
2022/03/29 00:51:15;;;;;;;12.43;5.65;;;;;;;17.04;33.71;98340.84;4425102;32;20373;-83
2022/03/29 00:53:42;;;;;;;14.50;5.97;;;;;;;17.02;33.73;98337.47;4411022;32;20099;-83
2022/03/29 00:56:08;;;;;;;15.80;6.00;;;;;;;16.99;33.74;98337.72;4424946;32;20149;-83
2022/03/29 00:58:34;;;;;;;15.10;5.62;;;;;;;17.01;33.83;98333.09;4424926;32;20354;-81
2022/03/29 01:01:01;;;;;;;13.70;6.12;;;;;;;16.84;34.11;98329.31;4417671;32;20111;-81
2022/03/29 01:03:27;;;;;;;15.20;5.95;;;;;;;16.90;34.11;98326.09;4424993;32;20442;-81
2022/03/29 01:05:53;;;;;;;13.80;6.12;;;;;;;16.98;33.98;98319.22;4423799;32;20098;-82
2022/03/29 01:08:18;;;;;;;15.10;6.05;;;;;;;16.78;34.42;98318.31;4411115;32;20154;-82
2022/03/29 01:10:45;;;;;;;14.48;6.37;;;;;;;16.87;34.15;98312.22;4410943;32;20453;-83
2022/03/29 01:13:11;;;;;;;13.75;6.12;;;;;;;16.81;34.40;98310.06;4411182;32;20081;-82
2022/03/29 01:15:39;;;;;;;14.50;6.50;;;;;;;16.77;34.31;98306.00;4410867;32;20397;-82
2022/03/29 01:18:05;;;;;;;13.50;6.32;;;;;;;16.86;34.21;98306.06;4423645;32;20102;-82
2022/03/29 01:20:32;;;;;;;15.98;5.95;;;;;;;16.87;34.14;98309.56;4410408;32;20810;-81
2022/03/29 01:23:00;;;;;;;14.13;6.63;;;;;;;16.83;34.06;98316.97;4410874;32;20085;-81
2022/03/29 01:25:34;;;;;;;14.82;5.82;;;;;;;16.85;34.01;98306.19;4424873;32;20163;-83
2022/03/29 01:28:02;;;;;;;14.27;6.72;;;;;;;16.82;34.08;98298.47;4424588;32;20123;-82
2022/03/29 01:30:27;;;;;;;16.62;7.12;;;;;;;16.64;34.32;98291.09;4423425;32;20089;-82
2022/03/29 01:32:53;;;;;;;13.77;6.78;;;;;;;16.40;34.59;98291.44;4410782;32;20120;-82
2022/03/29 01:35:22;;;;;;;13.70;6.32;;;;;;;16.69;34.31;98293.37;4424685;32;20132;-82
2022/03/29 01:37:48;;;;;;;16.83;6.43;;;;;;;16.49;34.59;98295.91;4410841;32;20409;-82
2022/03/29 01:40:15;;;;;;;16.00;6.22;;;;;;;16.60;34.49;98287.03;4416696;32;20097;-82
2022/03/29 01:42:50;;;;;;;14.30;6.00;;;;;;;16.64;34.47;98280.47;4424520;32;20510;-82
2022/03/29 01:45:16;;;;;;;16.45;6.80;;;;;;;16.62;34.49;98270.94;4410853;32;20190;-82
2022/03/29 01:47:41;;;;;;;14.52;6.50;;;;;;;16.64;34.54;98263.66;4409742;32;20157;-82
2022/03/29 01:50:08;;;;;;;16.58;7.15;;;;;;;16.52;34.69;98260.28;4424558;32;20138;-81
2022/03/29 01:52:39;;;;;;;16.52;6.12;;;;;;;16.60;34.52;98251.62;4410521;32;20526;-82
2022/03/29 01:55:04;;;;;;;13.75;6.53;;;;;;;16.45;34.72;98251.12;4410517;32;20106;-82
2022/03/29 01:57:30;;;;;;;16.02;7.60;;;;;;;16.30;34.94;98262.16;4424483;32;20441;-83
2022/03/29 02:02:39;;;;;;;20.20;8.25;;;;;;;16.18;36.11;98265.84;4427876;32;20111;-82
2022/03/29 02:05:05;;;;;;;19.12;7.20;;;;;;;15.97;36.12;98265.03;4439788;32;20126;-80
2022/03/29 02:07:31;;;;;;;15.25;7.30;;;;;;;15.88;36.16;98259.53;4439828;32;20120;-81
2022/03/29 02:09:56;;;;;;;16.73;6.30;;;;;;;15.86;36.00;98247.37;4439628;32;20081;-81
2022/03/29 02:12:22;;;;;;;15.82;6.10;;;;;;;15.82;35.99;98249.44;4439593;32;20088;-80
2022/03/29 02:14:47;;;;;;;15.85;6.68;;;;;;;15.74;35.99;98241.25;4439338;32;20151;-80
2022/03/29 02:17:12;;;;;;;14.98;6.65;;;;;;;15.75;35.94;98239.47;4438133;32;20485;-81
2022/03/29 02:19:38;;;;;;;15.38;6.87;;;;;;;15.89;35.58;98234.63;4425932;32;20119;-81
2022/03/29 02:22:03;;;;;;;16.17;7.60;;;;;;;15.80;35.38;98232.78;4439538;32;20103;-80
2022/03/29 02:24:29;;;;;;;15.70;7.07;;;;;;;16.02;35.20;98233.59;4439776;32;20097;-80
2022/03/29 02:26:54;;;;;;;17.00;7.65;;;;;;;15.90;35.34;98233.69;4425766;32;20118;-82
2022/03/29 02:29:20;;;;;;;15.98;6.93;;;;;;;16.04;35.13;98229.84;4439731;32;20110;-82
2022/03/29 02:31:45;;;;;;;14.18;7.03;;;;;;;16.02;34.72;98231.78;4439615;32;20326;-81
2022/03/29 02:34:10;;;;;;;18.10;7.90;;;;;;;16.07;34.87;98229.59;4439560;32;20094;-81
2022/03/29 02:36:36;;;;;;;15.48;7.72;;;;;;;15.98;35.05;98227.72;4424120;32;20433;-81
2022/03/29 02:39:01;;;;;;;16.05;7.70;;;;;;;15.90;35.40;98232.84;4439535;32;20093;-84
2022/03/29 02:41:27;;;;;;;17.15;7.50;;;;;;;15.86;35.60;98226.13;4439485;32;20085;-83
2022/03/29 02:43:52;;;;;;;15.90;7.50;;;;;;;15.95;35.56;98227.97;4439440;32;20086;-83
2022/03/29 02:46:19;;;;;;;18.87;8.35;;;;;;;15.79;35.88;98227.59;4439317;32;20143;-82
2022/03/29 02:48:44;;;;;;;16.25;7.95;;;;;;;15.80;35.79;98226.63;4439314;32;20085;-81
2022/03/29 02:51:10;;;;;;;15.25;7.93;;;;;;;15.67;36.08;98224.97;4439339;32;20097;-81
2022/03/29 02:53:35;;;;;;;16.00;7.43;;;;;;;15.69;36.05;98219.53;4439323;32;20086;-81
2022/03/29 02:56:01;;;;;;;19.87;7.65;;;;;;;15.72;36.02;98217.47;4439293;32;20104;-80
2022/03/29 02:58:26;;;;;;;17.15;7.87;;;;;;;15.71;36.14;98218.44;4428747;32;20141;-81
2022/03/29 03:00:52;;;;;;;17.42;7.15;;;;;;;15.62;36.31;98221.03;4427351;32;20374;-80
2022/03/29 03:03:17;;;;;;;18.25;8.13;;;;;;;15.65;36.18;98221.59;4427356;32;20148;-81
2022/03/29 03:05:43;;;;;;;16.60;7.50;;;;;;;15.60;36.24;98215.00;4441305;32;20146;-81
2022/03/29 03:08:08;;;;;;;18.33;7.82;;;;;;;15.52;36.42;98210.34;4441114;32;20085;-82
2022/03/29 03:10:34;;;;;;;16.15;7.53;;;;;;;15.57;36.29;98217.91;4440999;32;20119;-80
2022/03/29 03:12:59;;;;;;;18.45;8.20;;;;;;;15.44;36.53;98213.62;4441106;32;20124;-81
2022/03/29 03:15:25;;;;;;;16.33;7.47;;;;;;;15.20;37.02;98215.66;4440966;32;20089;-81
2022/03/29 03:17:52;;;;;;;16.50;8.55;;;;;;;15.36;36.64;98208.13;4439543;32;20085;-81
2022/03/29 03:20:17;;;;;;;15.05;7.47;;;;;;;15.40;36.48;98209.56;4427147;32;20146;-81
2022/03/29 03:22:43;;;;;;;17.92;8.02;;;;;;;15.46;36.36;98209.03;4427190;32;20125;-80
2022/03/29 03:25:09;;;;;;;16.20;8.25;;;;;;;15.42;36.36;98202.31;4441029;32;20112;-81
2022/03/29 03:27:35;;;;;;;16.90;8.32;;;;;;;15.12;36.80;98206.56;4427082;32;20123;-80
2022/03/29 03:30:02;;;;;;;21.17;7.57;;;;;;;15.22;36.64;98200.47;4440905;32;20109;-81
2022/03/29 03:32:27;;;;;;;18.73;8.98;;;;;;;15.26;36.52;98200.09;4426830;32;20172;-82
2022/03/29 03:34:52;;;;;;;18.42;8.07;;;;;;;15.37;36.22;98199.19;4440870;32;20109;-82
2022/03/29 03:37:18;;;;;;;16.40;7.75;;;;;;;15.48;36.17;98198.28;4428782;32;20120;-81
2022/03/29 03:39:43;;;;;;;17.58;8.05;;;;;;;15.43;36.19;98193.38;4425540;32;20381;-82
2022/03/29 03:42:12;;;;;;;18.40;7.87;;;;;;;15.44;36.07;98194.22;4425609;32;20121;-80
2022/03/29 03:44:38;;;;;;;17.02;7.78;;;;;;;15.43;36.15;98201.34;4414531;32;20102;-82
2022/03/29 03:47:07;;;;;;;17.83;8.05;;;;;;;15.42;36.20;98190.84;4425678;32;20116;-80
2022/03/29 03:49:36;;;;;;;18.52;9.02;;;;;;;15.35;36.37;98187.84;4419940;32;20137;-81
2022/03/29 03:52:02;;;;;;;17.30;8.50;;;;;;;15.34;36.34;98188.84;4425660;32;20137;-80
2022/03/29 03:54:28;;;;;;;19.98;9.10;;;;;;;15.31;36.36;98183.78;4425761;32;20109;-80
2022/03/29 03:56:53;;;;;;;16.77;8.23;;;;;;;15.29;36.35;98188.38;4425604;32;20147;-81
2022/03/29 03:59:18;;;;;;;18.52;8.95;;;;;;;15.28;36.30;98181.41;4411684;32;20125;-81
2022/03/29 04:01:44;;;;;;;19.17;8.35;;;;;;;14.95;36.94;98185.88;4425375;32;20113;-81
2022/03/29 04:04:09;;;;;;;20.05;9.23;;;;;;;15.11;36.56;98190.75;4411651;32;20158;-80
2022/03/29 04:06:35;;;;;;;18.02;9.00;;;;;;;15.13;36.52;98186.16;4425241;32;20109;-80
2022/03/29 04:09:00;;;;;;;19.52;8.90;;;;;;;15.04;36.61;98181.63;4425363;32;20093;-80
2022/03/29 04:11:26;;;;;;;15.70;8.02;;;;;;;14.94;36.59;98181.53;4398382;32;20110;-80
2022/03/29 04:13:52;;;;;;;40.30;8.52;;;;;;;15.04;36.35;98179.78;4411302;32;20113;-81
2022/03/29 04:16:17;;;;;;;19.42;8.85;;;;;;;14.86;36.77;98182.16;4425197;32;20081;-80
2022/03/29 04:18:43;;;;;;;17.23;8.68;;;;;;;14.98;36.43;98180.31;4411319;32;20124;-81
2022/03/29 04:21:09;;;;;;;18.48;9.35;;;;;;;14.82;36.43;98180.72;4411306;32;20456;-81
2022/03/29 04:23:35;;;;;;;18.42;9.45;;;;;;;14.88;36.12;98187.34;4425290;32;20175;-81
2022/03/29 04:26:02;;;;;;;19.75;8.82;;;;;;;14.96;36.02;98182.25;4412437;32;20086;-82
2022/03/29 04:28:27;;;;;;;19.83;8.88;;;;;;;14.99;35.92;98181.16;4426123;32;20103;-82
2022/03/29 04:30:55;;;;;;;17.45;8.75;;;;;;;14.90;35.78;98180.94;4414477;32;20081;-82
2022/03/29 04:33:21;;;;;;;19.25;9.32;;;;;;;14.92;35.79;98180.81;4436853;32;20491;-81
2022/03/29 04:35:47;;;;;;;20.12;8.57;;;;;;;14.90;35.90;98172.16;4440532;32;20089;-82
2022/03/29 04:38:12;;;;;;;18.65;8.77;;;;;;;14.87;35.92;98169.75;4440426;32;20122;-81
2022/03/29 04:40:37;;;;;;;21.20;8.95;;;;;;;14.96;35.76;98168.16;4426321;32;20218;-81
2022/03/29 04:43:03;;;;;;;18.70;9.02;;;;;;;15.02;35.71;98165.00;4426485;32;20097;-83
2022/03/29 04:45:28;;;;;;;18.40;9.32;;;;;;;15.02;35.68;98163.16;4439034;32;20127;-83
2022/03/29 04:47:54;;;;;;;18.05;8.98;;;;;;;14.98;35.64;98164.41;4440365;32;20103;-82
2022/03/29 04:50:19;;;;;;;17.23;9.10;;;;;;;14.97;35.48;98164.50;4412177;32;20119;-81
2022/03/29 04:52:46;;;;;;;18.92;8.20;;;;;;;15.07;35.29;98160.97;4425231;32;20119;-82
2022/03/29 04:55:13;;;;;;;21.50;9.03;;;;;;;15.12;35.24;98161.47;4417634;32;20127;-81
2022/03/29 04:57:41;;;;;;;20.45;9.60;;;;;;;14.76;35.47;98160.03;4435091;32;20460;-82
2022/03/29 05:00:07;;;;;;;18.95;8.75;;;;;;;15.10;35.03;98154.56;4440352;32;20161;-79
2022/03/29 05:02:35;;;;;;;20.75;9.38;;;;;;;15.18;35.03;98149.47;4426354;32;20113;-83
2022/03/29 05:05:01;;;;;;;19.23;9.43;;;;;;;15.23;35.19;98149.09;4440433;32;20132;-80
2022/03/29 05:07:28;;;;;;;19.23;9.05;;;;;;;15.05;34.98;98149.66;4416163;32;20109;-81
2022/03/29 05:09:54;;;;;;;19.20;9.60;;;;;;;15.10;34.93;98152.78;4424980;32;20483;-80
2022/03/29 05:12:19;;;;;;;22.45;9.57;;;;;;;15.29;34.77;98146.75;4424954;32;20090;-80
2022/03/29 05:14:44;;;;;;;19.33;9.55;;;;;;;15.42;34.65;98148.37;4424620;32;20139;-77
2022/03/29 05:17:10;;;;;;;21.42;9.70;;;;;;;15.48;34.48;98146.03;4424791;32;20138;-77
2022/03/29 05:19:36;;;;;;;17.27;8.65;;;;;;;15.60;34.14;98151.28;4424853;32;20113;-80
2022/03/29 05:22:02;;;;;;;24.00;8.82;;;;;;;15.69;34.06;98151.34;4410345;32;20127;-79
2022/03/29 05:24:27;;;;;;;18.98;9.02;;;;;;;15.72;33.43;98151.09;4424038;32;20164;-80
2022/03/29 05:26:53;;;;;;;19.37;9.15;;;;;;;15.82;33.12;98147.66;4411550;32;20089;-80
2022/03/29 05:29:18;;;;;;;20.88;9.35;;;;;;;16.07;33.22;98151.66;4424638;32;20461;-80
2022/03/29 05:31:44;;;;;;;19.15;8.88;;;;;;;16.16;33.73;98155.34;4410881;32;20127;-80
2022/03/29 05:34:10;;;;;;;16.83;8.88;;;;;;;16.32;33.88;98150.34;4424719;32;20093;-78
2022/03/29 05:36:35;;;;;;;20.67;10.15;;;;;;;16.43;33.52;98154.72;4410670;32;20132;-80
2022/03/29 05:39:04;;;;;;;18.37;9.20;;;;;;;16.59;33.36;98151.53;4424636;32;20118;-80
2022/03/29 05:41:29;;;;;;;16.52;8.68;;;;;;;16.77;33.16;98147.22;4424846;32;20093;-82
2022/03/29 05:43:55;;;;;;;19.65;9.60;;;;;;;16.86;33.09;98143.78;4424702;32;20494;-79
2022/03/29 05:49:04;;;;;;;21.77;10.40;;;;;;;17.24;32.92;98154.53;4412750;32;20112;-80
2022/03/29 05:51:31;;;;;;;20.30;9.27;;;;;;;17.35;32.57;98146.41;4424546;32;20382;-80
2022/03/29 05:53:57;;;;;;;20.50;9.73;;;;;;;17.51;32.55;98142.31;4424520;32;20090;-81
2022/03/29 06:03:23;;;;;;;20.45;9.50;;;;;;;16.84;34.84;98142.22;4509995;31;80103;-81
2022/03/29 06:05:49;;;;;;;21.75;9.73;;;;;;;16.84;34.84;98142.22;4503918;31;20115;-81
2022/03/29 06:08:14;;;;;;;23.08;10.90;;;;;;;16.85;34.73;98150.06;4486770;31;20150;-80
2022/03/29 06:10:40;;;;;;;25.08;11.20;;;;;;;17.32;34.99;98149.34;4501109;31;20114;-80
2022/03/29 06:13:08;;;;;;;17.77;10.07;;;;;;;17.57;34.42;98152.41;4493209;31;20099;-80
2022/03/29 06:15:34;;;;;;;22.48;11.27;;;;;;;17.83;34.20;98144.62;4500381;31;20565;-79
2022/03/29 06:18:00;;;;;;;20.33;11.38;;;;;;;18.04;34.21;98150.59;4506594;31;20087;-80
2022/03/29 06:20:25;;;;;;;22.92;11.10;;;;;;;18.10;34.13;98143.84;4514434;31;20348;-80
2022/03/29 06:22:50;;;;;;;21.50;10.77;;;;;;;18.21;33.38;98140.97;4508855;31;20161;-81
2022/03/29 06:25:16;;;;;;;23.60;12.02;;;;;;;18.45;32.42;98143.09;4505726;31;20152;-78
2022/03/29 06:27:42;;;;;;;21.12;11.50;;;;;;;18.61;33.08;98141.59;4508622;31;20658;-78
2022/03/29 06:30:08;;;;;;;25.85;12.32;;;;;;;18.62;33.19;98132.59;4512435;31;20091;-80
2022/03/29 06:32:33;;;;;;;23.27;12.57;;;;;;;18.75;33.09;98132.22;4513101;31;20095;-79
2022/03/29 06:34:59;;;;;;;25.42;12.20;;;;;;;18.83;33.12;98133.19;4513914;31;20104;-79
2022/03/29 06:37:25;;;;;;;21.80;12.73;;;;;;;18.88;33.12;98134.56;4486768;31;20128;-81
2022/03/29 06:39:50;;;;;;;29.23;13.13;;;;;;;18.95;32.92;98135.59;4500010;31;20103;-79
2022/03/29 06:42:18;;;;;;;27.80;14.02;;;;;;;19.02;32.99;98137.50;4500018;31;20103;-80
2022/03/29 06:44:44;;;;;;;;;;;;;;;19.02;32.81;98129.50;4512418;31;20167;-79
2022/03/29 06:47:10;;;;;;;26.60;13.77;;;;;;;19.05;32.54;98123.88;4503298;31;19972;-80
2022/03/29 06:49:36;;;;;;;28.17;13.53;;;;;;;19.12;32.50;98123.25;4498556;31;20443;-80
2022/03/29 06:52:01;;;;;;;24.70;13.82;;;;;;;18.99;32.66;98129.00;4483941;32;20146;-81
2022/03/29 06:54:28;;;;;;;27.37;14.93;;;;;;;19.16;32.34;98124.63;4498364;32;20088;-80
2022/03/29 06:56:54;;;;;;;30.83;15.35;;;;;;;19.25;32.07;98115.69;4484297;32;20503;-79
2022/03/29 06:59:19;;;;;;;26.25;14.45;;;;;;;19.24;32.15;98117.53;4498549;32;20080;-80
2022/03/29 07:01:45;;;;;;;30.15;14.48;;;;;;;19.34;31.70;98125.44;4498497;32;20157;-79
2022/03/29 07:04:10;;;;;;;28.65;14.40;;;;;;;19.28;31.92;98127.88;4506725;31;20118;-85
2022/03/29 07:06:35;;;;;;;25.83;14.63;;;;;;;19.19;32.08;98121.66;4508540;31;20114;-85
2022/03/29 07:11:46;;;;;;;31.98;15.60;;;;;;;19.17;32.35;98127.13;4499317;31;20161;-84
2022/03/29 07:14:12;;;;;;;37.45;15.60;;;;;;;19.21;31.93;98125.81;4490556;31;20088;-83
2022/03/29 07:16:39;;;;;;;30.80;15.02;;;;;;;19.16;32.19;98122.81;4487915;31;20108;-86
2022/03/29 07:19:08;;;;;;;36.10;15.80;;;;;;;19.30;31.99;98121.41;4487940;32;20131;-84
2022/03/29 07:21:34;;;;;;;29.27;15.00;;;;;;;19.33;31.82;98118.41;4489334;31;20128;-86
2022/03/29 07:24:01;;;;;;;29.15;14.50;;;;;;;19.42;31.78;98122.00;4487862;31;20456;-86
2022/03/29 07:26:30;;;;;;;29.10;15.55;;;;;;;19.64;31.60;98126.81;4488549;31;20481;-85
2022/03/29 07:28:56;;;;;;;26.67;15.07;;;;;;;19.74;31.51;98121.41;4490019;31;20119;-86
2022/03/29 07:31:21;;;;;;;32.17;13.85;;;;;;;19.77;31.28;98123.72;4494167;31;20345;-87
2022/03/29 07:33:47;;;;;;;34.22;15.10;;;;;;;19.70;31.56;98113.81;4487787;31;20116;-86
2022/03/29 07:36:12;;;;;;;33.00;16.27;;;;;;;19.84;31.18;98123.94;4495269;31;20144;-85
2022/03/29 07:38:37;;;;;;;32.58;15.88;;;;;;;19.94;31.14;98115.81;4491719;31;20118;-85
2022/03/29 07:41:03;;;;;;;27.00;15.23;;;;;;;19.97;31.21;98111.00;4494857;31;20443;-85
2022/03/29 07:43:29;;;;;;;25.55;14.10;;;;;;;20.17;30.50;98110.75;4498298;31;20149;-86
2022/03/29 07:45:58;;;;;;;31.37;15.18;;;;;;;20.17;29.92;98111.56;4487894;31;20506;-87
2022/03/29 07:48:23;;;;;;;34.40;16.77;;;;;;;20.17;30.57;98103.53;4494885;31;20530;-78
2022/03/29 07:50:49;;;;;;;24.27;13.00;;;;;;;20.16;30.16;98104.53;4496654;31;20116;-77
2022/03/29 07:53:15;;;;;;;24.75;13.50;;;;;;;20.28;29.23;98110.44;4494919;31;20085;-76
2022/03/29 07:55:40;;;;;;;26.67;14.18;;;;;;;20.35;29.44;98106.09;4488281;31;20112;-76
2022/03/29 07:58:06;;;;;;;24.05;14.30;;;;;;;20.43;29.53;98110.63;4475384;31;20103;-76
2022/03/29 08:00:32;;;;;;;34.05;13.62;;;;;;;20.44;29.59;98115.00;4474420;32;20154;-80
2022/03/29 08:02:59;;;;;;;29.12;14.75;;;;;;;20.50;29.55;98109.00;4487881;31;20096;-76
2022/03/29 08:05:24;;;;;;;27.40;13.27;;;;;;;20.57;29.30;98115.38;4486033;31;20088;-79
2022/03/29 08:07:50;;;;;;;25.17;13.68;;;;;;;20.74;28.79;98118.09;4472378;32;20110;-76
2022/03/29 08:10:16;;;;;;;26.33;12.05;;;;;;;20.80;28.80;98106.72;4486643;31;20100;-77
2022/03/29 08:12:42;;;;;;;23.90;11.27;;;;;;;20.81;27.20;98105.75;4475969;32;20100;-77
2022/03/29 08:15:10;;;;;;;19.40;10.18;;;;;;;20.89;26.30;98111.09;4472379;32;20123;-78
2022/03/29 08:17:36;;;;;;;27.13;11.12;;;;;;;21.00;25.54;98105.41;4472076;32;20143;-78
2022/03/29 08:20:02;;;;;;;21.30;10.23;;;;;;;20.85;24.99;98106.25;4473296;32;20127;-76
2022/03/29 08:22:27;;;;;;;20.95;10.57;;;;;;;21.02;24.98;98103.41;4487139;32;20486;-76
2022/03/29 08:24:53;;;;;;;22.13;10.27;;;;;;;21.00;25.57;98108.09;4486171;32;20076;-77
2022/03/29 08:27:18;;;;;;;21.80;10.60;;;;;;;21.09;25.76;98100.88;4487273;32;20377;-78
2022/03/29 08:29:44;;;;;;;23.77;10.30;;;;;;;21.29;25.16;98106.75;4490410;31;20115;-77
2022/03/29 08:32:10;;;;;;;25.25;11.02;;;;;;;21.32;25.42;98102.87;4503079;31;20490;-77
2022/03/29 08:34:35;;;;;;;24.90;11.10;;;;;;;21.44;24.62;98090.00;4488641;31;20123;-78
2022/03/29 08:37:01;;;;;;;19.58;10.50;;;;;;;21.50;25.10;98098.22;4503202;31;20411;-77
2022/03/29 08:39:26;;;;;;;19.87;10.48;;;;;;;21.55;24.45;98095.03;4502931;31;20104;-76
2022/03/29 08:42:12;;;;;;;20.83;10.35;;;;;;;21.71;24.02;98089.63;4488718;31;20100;-76
2022/03/29 08:44:39;;;;;;;20.70;10.35;;;;;;;21.76;23.49;98084.56;4502862;31;20439;-77
2022/03/29 08:47:09;;;;;;;23.13;10.40;;;;;;;21.78;23.66;98085.22;4487497;31;20092;-78
2022/03/29 08:49:35;;;;;;;20.48;10.30;;;;;;;21.98;23.71;98083.00;4502911;31;20198;-78
2022/03/29 08:52:02;;;;;;;20.17;10.07;;;;;;;22.06;24.05;98078.59;4488507;31;20144;-78
2022/03/29 08:54:28;;;;;;;20.62;9.38;;;;;;;22.12;23.71;98084.12;4474444;32;20107;-76
2022/03/29 08:56:53;;;;;;;19.67;9.70;;;;;;;22.22;23.79;98083.06;4496791;31;20080;-77
2022/03/29 08:59:20;;;;;;;20.52;9.00;;;;;;;22.14;22.29;98073.22;4502804;31;20088;-76
2022/03/29 09:01:46;;;;;;;18.30;8.30;;;;;;;21.84;22.60;98081.03;4502581;31;20134;-78
2022/03/29 09:04:14;;;;;;;18.65;8.52;;;;;;;21.95;22.45;98075.28;4503071;31;20080;-77
2022/03/29 09:07:01;;;;;;;20.20;8.70;;;;;;;21.89;22.05;98072.50;4488135;31;20415;-76
2022/03/29 09:09:30;;;;;;;19.98;9.15;;;;;;;21.97;22.89;98067.09;4488672;31;20100;-76
2022/03/29 09:11:58;;;;;;;19.87;8.68;;;;;;;22.05;23.07;98058.16;4488350;31;20088;-76
2022/03/29 09:14:26;;;;;;;22.08;10.30;;;;;;;21.90;22.47;98064.25;4486943;31;20113;-77
2022/03/29 09:16:54;;;;;;;19.77;9.43;;;;;;;21.96;22.52;98057.34;4497308;31;20379;-77
2022/03/29 09:19:23;;;;;;;19.08;8.55;;;;;;;22.07;22.29;98056.97;4486946;31;20092;-77
2022/03/29 09:21:49;;;;;;;19.15;8.75;;;;;;;21.94;21.73;98056.69;4485761;32;20131;-78
2022/03/29 09:24:17;;;;;;;19.95;9.82;;;;;;;21.98;22.34;98052.66;4486992;31;20088;-76
2022/03/29 09:26:47;;;;;;;18.98;9.25;;;;;;;21.92;22.43;98053.34;4485689;32;20114;-77
2022/03/29 09:29:19;;;;;;;19.02;8.00;;;;;;;22.13;22.56;98050.06;4485691;32;20100;-77
2022/03/29 09:31:46;;;;;;;18.92;8.65;;;;;;;22.33;21.58;98048.66;4485736;32;20361;-76
2022/03/29 09:34:17;;;;;;;17.80;8.80;;;;;;;22.45;22.48;98041.03;4486392;31;20122;-77
2022/03/29 09:36:45;;;;;;;20.90;9.52;;;;;;;22.07;22.19;98051.59;4486266;31;20168;-77
2022/03/29 09:39:39;;;;;;;19.98;9.52;;;;;;;22.02;22.58;98043.28;4485528;32;20123;-76
2022/03/29 09:42:15;;;;;;;20.77;9.27;;;;;;;22.22;22.37;98043.66;4485546;32;20508;-77
2022/03/29 09:44:44;;;;;;;19.08;9.25;;;;;;;22.46;22.64;98045.38;4492408;31;20088;-76
2022/03/29 09:47:15;;;;;;;20.02;9.25;;;;;;;22.66;22.06;98043.09;4488039;31;20080;-76
2022/03/29 09:49:55;;;;;;;16.12;8.30;;;;;;;22.47;21.90;98036.31;4502390;31;20091;-77
2022/03/29 09:52:26;;;;;;;20.95;9.38;;;;;;;22.53;22.14;98035.59;4488099;31;20104;-78
2022/03/29 09:55:09;;;;;;;21.37;9.48;;;;;;;22.87;22.03;98022.75;4488472;31;20167;-78
2022/03/29 09:57:39;;;;;;;19.23;9.82;;;;;;;22.92;21.46;98034.63;4502284;31;20095;-76
2022/03/29 10:00:07;;;;;;;20.15;8.85;;;;;;;22.69;20.41;98026.59;4487973;31;20249;-77
2022/03/29 10:02:34;;;;;;;20.88;9.10;;;;;;;22.55;20.70;98035.44;4499787;31;20110;-77
2022/03/29 10:05:00;;;;;;;18.85;8.70;;;;;;;22.67;20.27;98031.31;4487946;31;20084;-76
2022/03/29 10:07:26;;;;;;;19.73;9.35;;;;;;;22.71;20.90;98021.88;4487835;31;20325;-76
2022/03/29 10:09:51;;;;;;;21.15;9.02;;;;;;;22.68;20.74;98018.75;4486831;31;20129;-76
2022/03/29 10:12:19;;;;;;;20.83;8.93;;;;;;;23.03;20.60;98016.47;4478000;31;20139;-75
2022/03/29 10:14:45;;;;;;;22.42;9.35;;;;;;;23.08;21.25;98012.22;4472180;32;20084;-75
2022/03/29 10:17:13;;;;;;;22.73;10.07;;;;;;;23.01;19.86;98013.91;4482415;32;20084;-73
2022/03/29 10:19:38;;;;;;;;;;;;;;;22.69;19.98;98006.97;4486469;32;20092;-75
2022/03/29 10:22:06;;;;;;;20.80;9.88;;;;;;;22.50;20.47;98019.03;4465902;31;20292;-75
2022/03/29 10:24:32;;;;;;;21.77;11.35;;;;;;;22.66;20.49;98005.50;4478270;31;20096;-74
2022/03/29 10:27:00;;;;;;;22.60;9.88;;;;;;;22.69;20.42;98002.44;4489709;31;20092;-74
2022/03/29 10:29:25;;;;;;;;;;;;;;;22.74;21.01;98000.03;4472076;32;20108;-74
2022/03/29 10:31:54;;;;;;;20.52;10.98;;;;;;;22.71;20.42;97988.84;4472663;32;20019;-75
2022/03/29 10:34:37;;;;;;;24.17;10.88;;;;;;;22.54;20.73;97983.59;4498569;31;20139;-74
2022/03/29 10:37:12;;;;;;;22.77;10.93;;;;;;;22.84;20.70;97978.31;4476824;31;20106;-75
2022/03/29 10:39:51;;;;;;;21.75;11.10;;;;;;;22.97;21.70;97969.66;4489155;31;20515;-75
2022/03/29 10:42:41;;;;;;;24.05;10.98;;;;;;;22.96;20.46;97967.97;4484686;32;20504;-75
2022/03/29 10:45:22;;;;;;;24.37;11.57;;;;;;;23.04;21.06;97956.34;4485889;31;20118;-76
2022/03/29 10:48:09;;;;;;;25.23;11.32;;;;;;;22.79;20.55;97961.91;4485807;31;20563;-76
2022/03/29 10:50:54;;;;;;;22.77;12.30;;;;;;;22.87;19.96;97956.47;4496078;31;20177;-76
2022/03/29 10:53:24;;;;;;;22.45;10.98;;;;;;;23.08;20.55;97952.25;4492068;31;20100;-75
2022/03/29 10:56:16;;;;;;;25.05;10.68;;;;;;;23.25;20.18;97955.59;4492218;31;20408;-74
2022/03/29 10:59:03;;;;;;;24.85;11.95;;;;;;;23.27;20.43;97950.87;4479920;31;20099;-75
2022/03/29 11:01:30;;;;;;;21.77;11.68;;;;;;;23.38;19.29;97941.53;4497609;31;20096;-76
2022/03/29 11:03:58;;;;;;;21.87;11.00;;;;;;;23.52;19.24;97940.66;4479022;32;20119;-84
2022/03/29 11:06:23;;;;;;;22.40;11.65;;;;;;;23.78;19.23;97924.06;4493471;31;20489;-75
2022/03/29 11:08:49;;;;;;;25.92;11.85;;;;;;;23.73;18.99;97921.91;4478699;31;20096;-78
2022/03/29 11:11:39;;;;;;;25.92;11.95;;;;;;;23.88;18.29;97918.38;4483931;31;20104;-80
2022/03/29 11:14:27;;;;;;;23.85;11.30;;;;;;;24.16;17.95;97915.78;4490605;31;20162;-80
2022/03/29 11:16:53;;;;;;;23.77;11.35;;;;;;;24.37;18.07;97908.72;4489732;31;20114;-80
2022/03/29 11:19:56;;;;;;;24.87;12.25;;;;;;;23.99;17.39;97912.50;4493563;31;20096;-78
2022/03/29 11:22:22;;;;;;;24.92;13.52;;;;;;;24.05;16.78;97905.50;4410297;32;20208;-76
2022/03/29 11:24:52;;;;;;;21.52;11.40;;;;;;;23.85;17.11;97899.94;4408934;32;20117;-75
2022/03/29 11:27:22;;;;;;;25.30;13.00;;;;;;;24.10;17.25;97900.41;4397328;32;21100;-75
2022/03/29 11:29:47;;;;;;;24.12;11.98;;;;;;;24.01;17.36;97902.41;4423118;32;20506;-76
2022/03/29 11:32:14;;;;;;;24.63;12.32;;;;;;;24.25;17.33;97893.09;4421016;32;20148;-76
2022/03/29 11:34:40;;;;;;;25.48;12.80;;;;;;;24.34;17.08;97888.41;4416588;32;20102;-75
2022/03/29 11:37:07;;;;;;;22.25;11.85;;;;;;;24.18;17.09;97889.50;4415088;32;20151;-75
2022/03/29 11:39:32;;;;;;;27.20;12.65;;;;;;;24.31;16.95;97884.25;4416320;32;20116;-76